createdAt,value
2018-07-23T00:00:11.250Z,7.83
2018-07-23T00:02:38.571Z,7.90
2018-07-23T00:05:05.896Z,9.17
2018-07-23T00:07:33.179Z,8.27
2018-07-23T00:10:00.493Z,9.03
2018-07-23T00:12:27.780Z,8.57
2018-07-23T00:14:55.098Z,8.67
2018-07-23T00:17:22.441Z,8.70
2018-07-23T00:19:49.746Z,9.17
2018-07-23T00:22:17.067Z,8.67
2018-07-23T00:24:45.041Z,8.83
2018-07-23T00:27:12.328Z,8.03
2018-07-23T00:29:39.641Z,8.47
2018-07-23T00:32:06.929Z,8.40
2018-07-23T00:34:34.249Z,9.13
2018-07-23T00:37:01.540Z,7.87
2018-07-23T00:39:28.851Z,8.97
2018-07-23T00:41:56.140Z,8.97
2018-07-23T00:44:23.440Z,9.00
2018-07-23T00:46:50.811Z,9.03
2018-07-23T00:49:18.164Z,9.60
2018-07-23T00:51:45.486Z,10.03
2018-07-23T00:54:12.798Z,9.07
2018-07-23T00:56:40.129Z,10.10
2018-07-23T00:59:07.416Z,9.73
2018-07-23T01:01:34.744Z,9.47
2018-07-23T01:04:02.036Z,9.23
2018-07-23T01:06:29.362Z,8.80
2018-07-23T01:08:56.782Z,8.70
2018-07-23T01:11:24.136Z,9.17
2018-07-23T01:13:51.447Z,8.30
2018-07-23T01:16:18.789Z,8.90
2018-07-23T01:18:46.084Z,8.67
2018-07-23T01:21:13.396Z,8.90
2018-07-23T01:23:40.789Z,8.90
2018-07-23T01:26:08.107Z,8.77
2018-07-23T01:28:35.419Z,8.60
2018-07-23T01:31:02.815Z,8.73
2018-07-23T01:33:30.099Z,8.57
2018-07-23T01:35:57.388Z,9.20
2018-07-23T01:38:24.724Z,8.30
2018-07-23T01:40:52.113Z,8.50
2018-07-23T01:43:19.415Z,8.93
2018-07-23T01:45:46.780Z,9.33
2018-07-23T01:48:14.051Z,8.60
2018-07-23T01:50:41.343Z,8.33
2018-07-23T01:53:08.627Z,8.83
2018-07-23T01:55:35.912Z,9.23
2018-07-23T01:58:03.204Z,7.87
2018-07-23T02:00:30.540Z,8.23
2018-07-23T02:02:57.856Z,8.93
2018-07-23T02:05:25.208Z,8.60
2018-07-23T02:07:52.485Z,8.37
2018-07-23T02:10:19.801Z,8.63
2018-07-23T02:12:47.120Z,9.00
2018-07-23T02:15:14.419Z,9.10
2018-07-23T02:17:41.707Z,9.10
2018-07-23T02:20:09.016Z,8.93
2018-07-23T02:22:36.308Z,8.83
2018-07-23T02:25:03.670Z,8.83
2018-07-23T02:27:31.012Z,9.27
2018-07-23T02:29:58.293Z,8.93
2018-07-23T02:32:25.631Z,10.13
2018-07-23T02:34:53.006Z,9.60
2018-07-23T02:37:20.311Z,9.53
2018-07-23T02:39:47.584Z,10.40
2018-07-23T02:42:14.930Z,9.63
2018-07-23T02:44:42.212Z,9.33
2018-07-23T02:47:10.332Z,9.80
2018-07-23T02:49:37.780Z,9.53
2018-07-23T02:52:05.124Z,9.53
2018-07-23T02:54:32.455Z,9.43
2018-07-23T02:56:59.833Z,10.13
2018-07-23T02:59:27.192Z,9.33
2018-07-23T03:01:55.517Z,9.87
2018-07-23T03:04:22.815Z,9.27
2018-07-23T03:06:50.127Z,9.70
2018-07-23T03:09:17.436Z,9.43
2018-07-23T03:11:44.729Z,9.57
2018-07-23T03:14:12.017Z,10.80
2018-07-23T03:16:39.323Z,10.03
2018-07-23T03:19:06.604Z,9.97
2018-07-23T03:21:33.998Z,9.55
2018-07-23T03:24:01.287Z,9.73
2018-07-23T03:26:28.607Z,9.80
2018-07-23T03:28:55.889Z,9.70
2018-07-23T03:31:23.244Z,10.10
2018-07-23T03:33:50.515Z,10.43
2018-07-23T03:36:17.798Z,11.23
2018-07-23T03:38:45.073Z,11.10
2018-07-23T03:41:12.367Z,11.30
2018-07-23T03:43:39.648Z,11.47
2018-07-23T03:46:06.944Z,10.80
2018-07-23T03:48:34.272Z,11.20
2018-07-23T03:51:01.590Z,11.40
2018-07-23T03:53:28.916Z,11.80
2018-07-23T03:55:56.189Z,11.10
2018-07-23T03:58:23.503Z,12.27
2018-07-23T04:00:50.856Z,12.63
2018-07-23T04:03:18.163Z,11.37
2018-07-23T04:05:45.440Z,12.37
2018-07-23T04:08:12.734Z,10.97
2018-07-23T04:10:40.142Z,11.53
2018-07-23T04:13:07.485Z,11.73
2018-07-23T04:15:34.791Z,11.30
2018-07-23T04:18:03.320Z,11.83
2018-07-23T04:20:31.697Z,11.60
2018-07-23T04:22:58.993Z,11.90
2018-07-23T04:25:26.276Z,11.40
2018-07-23T04:27:53.934Z,12.23
2018-07-23T04:30:21.202Z,12.03
2018-07-23T04:32:48.511Z,11.87
2018-07-23T04:35:15.821Z,11.80
2018-07-23T04:37:43.219Z,11.27
2018-07-23T04:40:10.512Z,11.87
2018-07-23T04:42:37.808Z,11.60
2018-07-23T04:45:05.176Z,10.97
2018-07-23T04:47:32.465Z,11.13
2018-07-23T04:49:59.756Z,10.43
2018-07-23T04:52:27.073Z,11.63
2018-07-23T04:54:54.422Z,10.57
2018-07-23T04:57:21.768Z,11.33
2018-07-23T04:59:49.074Z,10.20
2018-07-23T05:02:16.381Z,10.73
2018-07-23T05:04:43.755Z,10.40
2018-07-23T05:07:11.072Z,11.13
2018-07-23T05:09:38.341Z,11.10
2018-07-23T05:12:05.700Z,10.43
2018-07-23T05:14:33.023Z,10.50
2018-07-23T05:17:00.305Z,10.73
2018-07-23T05:19:27.621Z,10.87
2018-07-23T05:21:54.906Z,11.20
2018-07-23T05:24:22.208Z,11.07
2018-07-23T05:26:49.491Z,10.77
2018-07-23T05:29:16.880Z,10.80
2018-07-23T05:31:44.302Z,10.73
2018-07-23T05:34:11.588Z,10.70
2018-07-23T05:36:38.888Z,10.70
2018-07-23T05:39:07.320Z,11.17
2018-07-23T05:41:34.643Z,10.70
2018-07-23T05:44:01.973Z,11.00
2018-07-23T05:46:29.308Z,10.93
2018-07-23T05:48:56.688Z,9.93
2018-07-23T05:51:24.012Z,11.53
2018-07-23T05:53:51.350Z,10.33
2018-07-23T05:56:18.631Z,10.73
2018-07-23T05:58:45.993Z,11.07
2018-07-23T06:01:13.855Z,11.00
2018-07-23T06:03:41.313Z,12.13
2018-07-23T06:06:08.629Z,11.00
2018-07-23T06:08:35.992Z,11.53
2018-07-23T06:11:03.801Z,11.37
2018-07-23T06:13:31.180Z,11.30
2018-07-23T06:15:58.441Z,11.43
2018-07-23T06:18:25.801Z,10.93
2018-07-23T06:20:53.116Z,10.73
2018-07-23T06:23:20.466Z,11.10
2018-07-23T06:25:47.818Z,11.07
2018-07-23T06:28:15.187Z,10.60
2018-07-23T06:30:42.560Z,11.20
2018-07-23T06:33:09.940Z,11.90
2018-07-23T06:35:37.295Z,10.87
2018-07-23T06:38:04.625Z,11.70
2018-07-23T06:40:31.948Z,10.77
2018-07-23T06:42:59.345Z,10.43
2018-07-23T06:45:26.691Z,10.83
2018-07-23T06:47:53.991Z,10.20
2018-07-23T06:50:21.320Z,9.70
2018-07-23T06:52:48.641Z,10.37
2018-07-23T06:55:17.879Z,10.10
2018-07-23T06:57:45.431Z,9.97
2018-07-23T07:00:12.857Z,10.43
2018-07-23T07:02:40.190Z,9.87
2018-07-23T07:05:07.643Z,10.30
2018-07-23T07:07:34.954Z,10.40
2018-07-23T07:10:02.300Z,10.20
2018-07-23T07:12:29.620Z,9.30
2018-07-23T07:14:56.944Z,8.53
2018-07-23T07:17:24.275Z,9.43
2018-07-23T07:19:55.459Z,9.87
2018-07-23T07:22:22.767Z,9.20
2018-07-23T07:24:50.125Z,8.80
2018-07-23T07:27:17.508Z,10.17
2018-07-23T07:29:44.856Z,9.17
2018-07-23T07:32:12.183Z,9.37
2018-07-23T07:34:39.527Z,8.47
2018-07-23T07:37:06.927Z,9.27
2018-07-23T07:39:34.243Z,9.23
2018-07-23T07:42:01.552Z,8.47
2018-07-23T07:44:29.064Z,8.43
2018-07-23T07:46:56.444Z,9.80
2018-07-23T07:49:23.764Z,10.10
2018-07-23T07:51:51.056Z,9.23
2018-07-23T07:54:18.393Z,9.60
2018-07-23T07:56:45.707Z,9.50
2018-07-23T07:59:13.069Z,10.10
2018-07-23T08:01:40.378Z,10.07
2018-07-23T08:04:07.746Z,9.80
2018-07-23T08:06:35.060Z,9.93
2018-07-23T08:09:02.581Z,10.20
2018-07-23T08:11:29.873Z,10.97
2018-07-23T08:13:57.148Z,10.67
2018-07-23T08:16:24.482Z,11.00
2018-07-23T08:18:51.751Z,10.47
2018-07-23T08:21:19.136Z,11.00
2018-07-23T08:23:46.410Z,9.70
2018-07-23T08:26:13.965Z,10.37
2018-07-23T08:28:41.244Z,10.70
2018-07-23T08:31:08.572Z,11.40
2018-07-23T08:33:35.878Z,9.70
2018-07-23T08:36:03.193Z,9.53
2018-07-23T08:38:30.499Z,11.10
2018-07-23T08:40:57.824Z,11.10
2018-07-23T08:43:25.101Z,8.87
2018-07-23T08:45:52.424Z,10.03
2018-07-23T08:48:19.693Z,10.13
2018-07-23T08:50:46.991Z,10.20
2018-07-23T08:53:14.306Z,9.93
2018-07-23T08:55:48.060Z,6.97
2018-07-23T08:58:15.340Z,8.23
2018-07-23T09:00:42.685Z,7.70
2018-07-23T09:03:09.984Z,8.13
2018-07-23T09:05:37.281Z,8.00
2018-07-23T09:08:04.576Z,8.00
2018-07-23T09:10:31.896Z,8.60
2018-07-23T09:12:59.204Z,8.43
2018-07-23T09:15:26.539Z,8.90
2018-07-23T09:17:53.820Z,8.53
2018-07-23T09:20:21.138Z,8.73
2018-07-23T09:22:48.460Z,8.33
2018-07-23T09:25:15.756Z,8.50
2018-07-23T09:27:43.063Z,10.30
2018-07-23T09:30:15.789Z,9.07
2018-07-23T09:32:43.058Z,8.57
2018-07-23T09:35:10.393Z,8.23
2018-07-23T09:37:37.668Z,9.70
2018-07-23T09:40:05.355Z,9.07
2018-07-23T09:42:32.629Z,6.90
2018-07-23T09:44:59.929Z,7.50
2018-07-23T09:47:27.182Z,6.70
2018-07-23T09:49:54.508Z,6.90
2018-07-23T09:52:21.834Z,6.77
2018-07-23T09:54:49.140Z,7.30
2018-07-23T09:57:16.467Z,6.67
2018-07-23T09:59:43.759Z,6.50
2018-07-23T10:02:11.056Z,6.77
2018-07-23T10:04:38.327Z,6.70
2018-07-23T10:07:05.604Z,7.13
2018-07-23T10:09:32.880Z,8.40
2018-07-23T10:12:00.179Z,6.33
2018-07-23T10:14:27.454Z,7.20
2018-07-23T10:16:54.752Z,6.33
2018-07-23T10:19:22.049Z,6.57
2018-07-23T10:21:49.357Z,6.27
2018-07-23T10:24:16.658Z,6.53
2018-07-23T10:26:43.961Z,7.00
2018-07-23T10:29:11.332Z,7.00
2018-07-23T10:31:38.664Z,7.90
2018-07-23T10:34:06.124Z,7.90
2018-07-23T10:36:33.414Z,6.70
2018-07-23T10:39:00.700Z,6.90
2018-07-23T10:41:28.016Z,6.63
2018-07-23T10:43:55.299Z,6.60
2018-07-23T10:46:22.592Z,6.77
2018-07-23T10:48:49.883Z,7.50
2018-07-23T10:51:17.225Z,7.33
2018-07-23T10:53:44.507Z,6.43
2018-07-23T10:56:11.830Z,6.70
2018-07-23T10:58:39.144Z,7.63
2018-07-23T11:01:06.460Z,7.73
2018-07-23T11:03:33.732Z,8.37
2018-07-23T11:06:01.041Z,9.23
2018-07-23T11:08:28.327Z,10.20
2018-07-23T11:10:55.612Z,8.73
2018-07-23T11:13:22.935Z,9.40
2018-07-23T11:15:50.225Z,6.97
2018-07-23T11:18:17.534Z,6.40
2018-07-23T11:20:44.857Z,6.67
2018-07-23T11:23:12.224Z,6.47
2018-07-23T11:25:40.376Z,7.23
2018-07-23T11:28:06.917Z,7.60
2018-07-23T11:30:34.255Z,8.15
2018-07-23T11:33:01.791Z,7.87
2018-07-23T11:35:29.156Z,7.50
2018-07-23T11:37:56.557Z,8.43
2018-07-23T11:40:23.884Z,7.77
2018-07-23T11:42:51.240Z,9.30
2018-07-23T11:45:18.570Z,7.93
2018-07-23T11:47:45.851Z,7.22
2018-07-23T11:50:14.046Z,5.95
2018-07-23T11:52:41.429Z,6.42
2018-07-23T11:55:08.801Z,6.80
2018-07-23T11:57:36.113Z,6.03
2018-07-23T12:00:03.604Z,6.80
2018-07-23T12:02:30.910Z,6.17
2018-07-23T12:04:58.321Z,6.80
2018-07-23T12:07:25.738Z,5.50
2018-07-23T12:09:53.070Z,5.42
2018-07-23T12:12:20.404Z,5.37
2018-07-23T12:14:47.728Z,5.30
2018-07-23T12:17:15.144Z,4.92
2018-07-23T12:19:42.436Z,4.97
2018-07-23T12:22:09.750Z,4.85
2018-07-23T12:24:37.069Z,5.28
2018-07-23T12:27:04.442Z,5.58
2018-07-23T12:29:31.752Z,4.85
2018-07-23T12:31:59.111Z,5.17
2018-07-23T12:34:26.439Z,6.20
2018-07-23T12:36:53.754Z,5.37
2018-07-23T12:39:21.186Z,5.08
2018-07-23T12:41:48.516Z,5.35
2018-07-23T12:44:15.811Z,5.15
2018-07-23T12:46:43.151Z,5.17
2018-07-23T12:49:10.452Z,5.28
2018-07-23T12:51:37.751Z,5.37
2018-07-23T12:54:05.133Z,5.80
2018-07-23T12:56:32.401Z,5.58
2018-07-23T12:58:59.752Z,4.85
2018-07-23T13:01:27.138Z,5.53
2018-07-23T13:03:54.606Z,5.72
2018-07-23T13:06:21.916Z,6.28
2018-07-23T13:08:49.261Z,5.67
2018-07-23T13:11:16.648Z,6.20
2018-07-23T13:13:43.972Z,6.20
2018-07-23T13:16:11.293Z,6.15
2018-07-23T13:18:38.654Z,5.25
2018-07-23T13:21:06.433Z,5.50
2018-07-23T13:23:33.838Z,4.90
2018-07-23T13:26:01.260Z,5.30
2018-07-23T13:28:29.241Z,5.60
2018-07-23T13:30:56.976Z,6.25
2018-07-23T13:33:24.659Z,6.60
2018-07-23T13:35:52.053Z,6.47
2018-07-23T13:38:19.483Z,6.20
2018-07-23T13:40:46.853Z,6.00
2018-07-23T13:43:14.232Z,5.40
2018-07-23T13:45:41.548Z,5.30
2018-07-23T13:48:08.931Z,5.15
2018-07-23T13:50:36.317Z,5.20
2018-07-23T13:53:03.679Z,5.00
2018-07-23T13:55:31.256Z,4.78
2018-07-23T13:57:58.602Z,4.47
2018-07-23T14:00:25.937Z,5.62
2018-07-23T14:02:53.264Z,5.90
2018-07-23T14:05:20.676Z,6.42
2018-07-23T14:07:47.983Z,5.92
2018-07-23T14:10:15.286Z,5.35
2018-07-23T14:12:42.609Z,5.00
2018-07-23T14:15:09.972Z,5.20
2018-07-23T14:17:37.316Z,5.22
2018-07-23T14:20:04.632Z,4.90
2018-07-23T14:22:31.933Z,4.37
2018-07-23T14:24:59.243Z,5.12
2018-07-23T14:27:26.538Z,3.90
2018-07-23T14:29:53.848Z,4.87
2018-07-23T14:32:21.157Z,4.28
2018-07-23T14:34:48.535Z,3.90
2018-07-23T14:37:15.823Z,4.05
2018-07-23T14:39:43.383Z,4.20
2018-07-23T14:42:10.680Z,4.05
2018-07-23T14:44:38.072Z,4.28
2018-07-23T14:47:05.412Z,4.37
2018-07-23T14:49:32.729Z,3.98
2018-07-23T14:52:00.023Z,4.85
2018-07-23T14:54:39.429Z,4.53
2018-07-23T14:57:06.696Z,4.35
2018-07-23T14:59:34.663Z,4.55
2018-07-23T15:02:02.001Z,4.40
2018-07-23T15:04:29.311Z,5.00
2018-07-23T15:06:56.619Z,4.70
2018-07-23T15:09:23.995Z,4.30
2018-07-23T15:11:53.340Z,4.12
2018-07-23T15:14:20.772Z,4.33
2018-07-23T15:16:48.101Z,4.03
2018-07-23T15:19:15.459Z,3.72
2018-07-23T15:21:42.939Z,4.12
2018-07-23T15:24:10.277Z,3.65
2018-07-23T15:26:37.619Z,4.35
2018-07-23T15:29:04.963Z,4.40
2018-07-23T15:31:32.274Z,4.70
2018-07-23T15:33:59.702Z,4.22
2018-07-23T15:36:27.543Z,4.00
2018-07-23T15:38:54.899Z,3.95
2018-07-23T15:41:22.257Z,4.15
2018-07-23T15:43:49.915Z,4.10
2018-07-23T15:46:17.484Z,4.05
2018-07-23T15:48:44.788Z,4.12
2018-07-23T15:51:12.218Z,4.20
2018-07-23T15:53:39.624Z,4.28
2018-07-23T15:56:07.044Z,4.28
2018-07-23T15:58:34.519Z,4.12
2018-07-23T16:01:02.182Z,4.15
2018-07-23T16:03:29.594Z,4.03
2018-07-23T16:05:56.929Z,4.65
2018-07-23T16:08:24.263Z,4.83
2018-07-23T16:10:51.615Z,4.35
2018-07-23T16:13:18.871Z,5.10
2018-07-23T16:15:46.275Z,4.67
2018-07-23T16:18:13.554Z,4.42
2018-07-23T16:20:40.904Z,4.30
2018-07-23T16:23:08.268Z,4.83
2018-07-23T16:25:35.595Z,4.37
2018-07-23T16:28:02.955Z,4.40
2018-07-23T16:30:30.308Z,4.65
2018-07-23T16:32:57.594Z,4.83
2018-07-23T16:35:25.072Z,4.72
2018-07-23T16:37:52.363Z,5.00
2018-07-23T16:40:19.697Z,4.62
2018-07-23T16:42:47.060Z,4.42
2018-07-23T16:45:14.400Z,4.58
2018-07-23T16:47:41.732Z,4.83
2018-07-23T16:50:09.072Z,4.87
2018-07-23T16:52:36.371Z,4.97
2018-07-23T16:55:03.713Z,4.85
2018-07-23T16:57:31.072Z,4.50
2018-07-23T16:59:58.435Z,5.08
2018-07-23T17:02:25.739Z,4.53
2018-07-23T17:04:53.116Z,5.10
2018-07-23T17:07:20.432Z,5.05
2018-07-23T17:09:47.776Z,4.62
2018-07-23T17:12:15.072Z,4.70
2018-07-23T17:14:42.474Z,5.50
2018-07-23T17:17:09.775Z,6.03
2018-07-23T17:19:37.112Z,4.78
2018-07-23T17:22:04.979Z,5.10
2018-07-23T17:24:32.370Z,4.83
2018-07-23T17:26:59.686Z,4.75
2018-07-23T17:29:27.077Z,4.62
2018-07-23T17:31:54.521Z,4.35
2018-07-23T17:34:21.848Z,4.97
2018-07-23T17:36:49.188Z,4.65
2018-07-23T17:39:16.500Z,5.05
2018-07-23T17:41:43.824Z,4.55
2018-07-23T17:44:11.149Z,4.85
2018-07-23T17:46:38.471Z,4.83
2018-07-23T17:49:05.783Z,5.20
2018-07-23T17:51:36.751Z,5.25
2018-07-23T17:54:04.077Z,5.25
2018-07-23T17:56:31.412Z,4.42
2018-07-23T17:58:58.706Z,5.00
2018-07-23T18:01:26.162Z,4.92
2018-07-23T18:03:53.472Z,4.90
2018-07-23T18:06:20.907Z,4.90
2018-07-23T18:08:48.231Z,4.80
2018-07-23T18:11:15.654Z,4.53
2018-07-23T18:13:43.099Z,4.50
2018-07-23T18:16:10.506Z,4.40
2018-07-23T18:18:37.804Z,4.60
2018-07-23T18:21:05.117Z,4.80
2018-07-23T18:23:32.418Z,4.42
2018-07-23T18:25:59.731Z,4.53
2018-07-23T18:28:27.066Z,4.45
2018-07-23T18:30:54.436Z,4.08
2018-07-23T18:33:21.779Z,4.42
2018-07-23T18:36:00.868Z,4.50
2018-07-23T18:38:28.305Z,4.72
2018-07-23T18:40:55.590Z,5.12
2018-07-23T18:43:23.016Z,4.40
2018-07-23T18:45:50.359Z,4.47
2018-07-23T18:48:23.244Z,4.47
2018-07-23T18:50:50.563Z,4.40
2018-07-23T18:53:19.791Z,4.47
2018-07-23T18:55:47.150Z,4.63
2018-07-23T18:58:14.450Z,4.40
2018-07-23T19:00:41.755Z,4.47
2018-07-23T19:03:09.016Z,4.87
2018-07-23T19:05:36.356Z,4.47
2018-07-23T19:08:03.732Z,4.90
2018-07-23T19:10:31.075Z,4.63
2018-07-23T19:12:58.388Z,4.67
2018-07-23T19:15:27.780Z,4.67
2018-07-23T19:17:55.071Z,4.53
2018-07-23T19:20:22.449Z,4.80
2018-07-23T19:22:49.749Z,4.93
2018-07-23T19:25:17.037Z,5.10
2018-07-23T19:27:44.396Z,4.70
2018-07-23T19:30:11.745Z,4.87
2018-07-23T19:32:39.070Z,5.60
2018-07-23T19:35:06.634Z,5.10
2018-07-23T19:37:33.968Z,5.00
2018-07-23T19:40:01.275Z,4.73
2018-07-23T19:42:28.584Z,4.80
2018-07-23T19:44:55.874Z,4.73
2018-07-23T19:47:23.228Z,4.87
2018-07-23T19:49:50.493Z,5.17
2018-07-23T19:52:17.792Z,5.10
2018-07-23T19:54:45.211Z,4.93
2018-07-23T19:57:12.604Z,5.83
2018-07-23T19:59:39.992Z,5.40
2018-07-23T20:02:07.371Z,5.67
2018-07-23T20:04:34.724Z,5.40
2018-07-23T20:07:02.081Z,5.93
2018-07-23T20:09:35.561Z,6.03
2018-07-23T20:12:02.904Z,6.10
2018-07-23T20:14:30.208Z,6.17
2018-07-23T20:16:57.548Z,6.07
2018-07-23T20:19:25.949Z,5.93
2018-07-23T20:21:53.276Z,5.90
2018-07-23T20:24:20.596Z,5.70
2018-07-23T20:26:47.969Z,5.80
2018-07-23T20:29:15.327Z,6.03
2018-07-23T20:31:42.710Z,5.83
2018-07-23T20:34:10.021Z,6.10
2018-07-23T20:36:37.371Z,6.33
2018-07-23T20:39:05.886Z,6.33
2018-07-23T20:41:33.196Z,6.50
2018-07-23T20:44:00.591Z,6.67
2018-07-23T20:46:27.941Z,6.80
2018-07-23T20:48:55.282Z,7.13
2018-07-23T20:51:22.687Z,6.73
2018-07-23T20:53:52.152Z,6.93
2018-07-23T20:56:19.480Z,6.60
2018-07-23T20:58:46.847Z,6.97
2018-07-23T21:01:14.201Z,6.93
2018-07-23T21:03:41.571Z,6.70
2018-07-23T21:06:17.299Z,7.50
2018-07-23T21:08:44.636Z,7.30
2018-07-23T21:11:11.948Z,7.43
2018-07-23T21:13:39.239Z,7.00
2018-07-23T21:16:06.610Z,7.30
2018-07-23T21:18:34.012Z,7.10
2018-07-23T21:21:01.356Z,8.00
2018-07-23T21:23:28.689Z,7.60
2018-07-23T21:25:56.116Z,7.20
2018-07-23T21:28:23.451Z,7.73
2018-07-23T21:30:50.759Z,7.40
2018-07-23T21:33:18.072Z,7.40
2018-07-23T21:35:45.424Z,8.50
2018-07-23T21:38:12.748Z,7.07
2018-07-23T21:40:40.033Z,7.10
2018-07-23T21:43:07.416Z,7.80
2018-07-23T21:45:34.764Z,7.27
2018-07-23T21:48:02.157Z,7.87
2018-07-23T21:50:29.472Z,8.50
2018-07-23T21:52:56.856Z,7.37
2018-07-23T21:55:24.252Z,8.00
2018-07-23T21:57:51.695Z,7.70
2018-07-23T22:00:20.121Z,8.00
2018-07-23T22:02:47.449Z,8.37
2018-07-23T22:05:14.756Z,7.90
2018-07-23T22:07:42.078Z,7.87
2018-07-23T22:10:09.813Z,8.50
2018-07-23T22:12:37.228Z,7.90
2018-07-23T22:15:05.628Z,8.77
2018-07-23T22:17:32.992Z,7.70
2018-07-23T22:20:00.340Z,8.27
2018-07-23T22:22:27.700Z,7.17
2018-07-23T22:24:55.220Z,7.23
2018-07-23T22:27:22.528Z,7.50
2018-07-23T22:29:49.901Z,8.03
2018-07-23T22:32:17.465Z,7.83
2018-07-23T22:34:44.783Z,8.23
2018-07-23T22:37:12.092Z,8.63
2018-07-23T22:39:39.418Z,8.93
2018-07-23T22:42:06.804Z,8.30
2018-07-23T22:44:34.304Z,8.23
2018-07-23T22:47:01.604Z,8.47
2018-07-23T22:49:29.040Z,8.50
2018-07-23T22:51:56.352Z,8.27
2018-07-23T22:54:23.642Z,8.27
2018-07-23T22:56:50.963Z,8.40
2018-07-23T22:59:18.268Z,8.17
2018-07-23T23:01:46.364Z,8.60
2018-07-23T23:04:13.725Z,9.10
2018-07-23T23:06:41.094Z,8.47
2018-07-23T23:09:09.201Z,9.03
2018-07-23T23:11:36.564Z,8.83
2018-07-23T23:14:03.879Z,8.73
2018-07-23T23:16:31.224Z,8.77
2018-07-23T23:18:58.598Z,9.77
2018-07-23T23:21:25.933Z,9.50
2018-07-23T23:23:53.300Z,9.30
2018-07-23T23:26:20.605Z,8.43
2018-07-23T23:28:47.927Z,9.20
2018-07-23T23:31:15.239Z,8.43
2018-07-23T23:33:42.551Z,8.20
2018-07-23T23:36:09.885Z,9.07
2018-07-23T23:38:37.190Z,8.37
2018-07-23T23:41:04.504Z,8.40
2018-07-23T23:43:31.807Z,8.20
2018-07-23T23:45:59.270Z,8.90
2018-07-23T23:48:26.576Z,8.30
2018-07-23T23:50:53.968Z,9.27
2018-07-23T23:53:21.261Z,8.10
2018-07-23T23:55:48.667Z,9.00
2018-07-23T23:58:15.943Z,8.43
